createdAt,value
2018-10-06T00:00:46.356Z,8.60
2018-10-06T00:03:15.134Z,7.93
2018-10-06T00:05:43.748Z,8.13
2018-10-06T00:08:12.404Z,8.27
2018-10-06T00:10:41.500Z,8.37
2018-10-06T00:13:10.081Z,6.97
2018-10-06T00:15:38.671Z,7.40
2018-10-06T00:18:07.419Z,8.60
2018-10-06T00:20:35.998Z,8.63
2018-10-06T00:23:04.592Z,7.47
2018-10-06T00:25:33.199Z,8.40
2018-10-06T00:28:02.096Z,7.80
2018-10-06T00:30:31.159Z,8.80
2018-10-06T00:32:59.848Z,7.97
2018-10-06T00:35:28.439Z,8.43
2018-10-06T00:37:57.031Z,8.60
2018-10-06T00:40:25.644Z,8.93
2018-10-06T00:42:54.220Z,7.77
2018-10-06T00:45:22.794Z,7.77
2018-10-06T00:47:51.494Z,8.20
2018-10-06T00:50:20.196Z,8.00
2018-10-06T00:52:48.795Z,8.33
2018-10-06T00:55:17.412Z,7.97
2018-10-06T00:57:45.975Z,8.30
2018-10-06T01:00:14.948Z,7.60
2018-10-06T01:02:43.559Z,7.70
2018-10-06T01:05:12.136Z,7.73
2018-10-06T01:07:40.767Z,8.43
2018-10-06T01:10:09.748Z,8.33
2018-10-06T01:12:38.328Z,8.03
2018-10-06T01:15:06.956Z,8.50
2018-10-06T01:17:35.699Z,7.67
2018-10-06T01:20:04.264Z,8.20
2018-10-06T01:22:32.840Z,7.90
2018-10-06T01:25:01.899Z,8.30
2018-10-06T01:27:30.508Z,8.87
2018-10-06T01:29:59.079Z,8.90
2018-10-06T01:32:27.799Z,7.40
2018-10-06T01:34:56.364Z,8.70
2018-10-06T01:37:24.947Z,8.77
2018-10-06T01:39:53.805Z,8.30
2018-10-06T01:42:22.364Z,8.00
2018-10-06T01:44:50.927Z,7.97
2018-10-06T01:47:19.769Z,7.50
2018-10-06T01:49:48.357Z,8.77
2018-10-06T01:52:16.971Z,8.53
2018-10-06T01:54:45.612Z,10.00
2018-10-06T01:57:14.304Z,9.00
2018-10-06T01:59:42.869Z,7.50
2018-10-06T02:02:11.448Z,9.37
2018-10-06T02:04:40.017Z,9.30
2018-10-06T02:07:08.595Z,8.37
2018-10-06T02:09:37.272Z,7.50
2018-10-06T02:12:06.208Z,9.57
2018-10-06T02:14:34.776Z,9.23
2018-10-06T02:17:03.495Z,9.63
2018-10-06T02:19:32.089Z,8.23
2018-10-06T02:22:00.656Z,8.70
2018-10-06T02:24:29.285Z,9.80
2018-10-06T02:26:57.864Z,9.50
2018-10-06T02:29:26.456Z,9.50
2018-10-06T02:31:55.312Z,9.37
2018-10-06T02:34:23.896Z,8.90
2018-10-06T02:36:52.463Z,9.40
2018-10-06T02:39:21.172Z,9.63
2018-10-06T02:41:49.845Z,9.50
2018-10-06T02:44:18.831Z,9.53
2018-10-06T02:46:47.491Z,11.30
2018-10-06T02:49:16.060Z,9.63
2018-10-06T02:51:44.635Z,8.30
2018-10-06T02:54:13.218Z,9.53
2018-10-06T02:56:41.775Z,7.77
2018-10-06T02:59:10.363Z,9.10
2018-10-06T03:01:39.257Z,7.80
2018-10-06T03:04:07.821Z,8.80
2018-10-06T03:06:36.400Z,9.03
2018-10-06T03:09:06.643Z,8.03
2018-10-06T03:11:35.216Z,7.90
2018-10-06T03:14:03.800Z,9.27
2018-10-06T03:16:33.583Z,8.30
2018-10-06T03:19:02.222Z,9.53
2018-10-06T03:21:30.805Z,8.60
2018-10-06T03:23:59.692Z,8.70
2018-10-06T03:26:28.316Z,8.17
2018-10-06T03:28:56.911Z,8.40
2018-10-06T03:31:26.565Z,7.70
2018-10-06T03:33:55.134Z,8.30
2018-10-06T03:36:23.693Z,8.50
2018-10-06T03:38:52.692Z,9.10
2018-10-06T03:41:21.267Z,7.97
2018-10-06T03:43:49.854Z,8.30
2018-10-06T03:46:18.452Z,8.47
2018-10-06T03:48:47.031Z,8.23
2018-10-06T03:51:16.169Z,8.00
2018-10-06T03:53:45.260Z,8.83
2018-10-06T03:56:13.844Z,7.43
2018-10-06T03:58:42.479Z,7.93
2018-10-06T04:01:11.084Z,8.10
2018-10-06T04:03:39.644Z,8.07
2018-10-06T04:06:08.264Z,8.53
2018-10-06T04:08:36.872Z,7.70
2018-10-06T04:11:05.477Z,8.30
2018-10-06T04:13:34.042Z,8.00
2018-10-06T04:16:02.652Z,8.33
2018-10-06T04:18:31.253Z,6.93
2018-10-06T04:20:59.839Z,7.60
2018-10-06T04:23:28.494Z,8.50
2018-10-06T04:25:57.076Z,8.77
2018-10-06T04:28:25.925Z,8.03
2018-10-06T04:30:54.627Z,7.80
2018-10-06T04:33:23.297Z,7.77
2018-10-06T04:35:51.860Z,7.53
2018-10-06T04:38:20.464Z,7.90
2018-10-06T04:40:49.044Z,8.27
2018-10-06T04:43:17.943Z,8.80
2018-10-06T04:45:46.644Z,7.90
2018-10-06T04:48:15.211Z,7.67
2018-10-06T04:50:43.791Z,8.30
2018-10-06T04:53:12.444Z,8.47
2018-10-06T04:55:41.007Z,8.97
2018-10-06T04:58:09.584Z,9.07
2018-10-06T05:00:38.423Z,8.40
2018-10-06T05:03:07.047Z,9.67
2018-10-06T05:05:35.859Z,8.33
2018-10-06T05:08:05.019Z,9.33
2018-10-06T05:10:33.588Z,9.17
2018-10-06T05:13:02.172Z,10.87
2018-10-06T05:15:30.933Z,10.17
2018-10-06T05:17:59.520Z,8.87
2018-10-06T05:20:28.136Z,8.70
2018-10-06T05:22:56.752Z,9.40
2018-10-06T05:25:25.324Z,10.03
2018-10-06T05:27:53.924Z,10.07
2018-10-06T05:30:22.855Z,9.60
2018-10-06T05:32:51.419Z,10.50
2018-10-06T05:35:20.083Z,9.53
2018-10-06T05:37:48.727Z,9.03
2018-10-06T05:40:17.353Z,9.67
2018-10-06T05:42:45.960Z,10.50
2018-10-06T05:45:14.841Z,9.90
2018-10-06T05:47:43.456Z,11.20
2018-10-06T05:50:12.196Z,9.50
2018-10-06T05:52:40.809Z,9.60
2018-10-06T05:55:09.395Z,9.90
2018-10-06T05:57:38.155Z,9.77
2018-10-06T06:00:06.915Z,11.30
2018-10-06T06:02:35.492Z,10.43
2018-10-06T06:05:04.175Z,10.50
2018-10-06T06:07:32.878Z,9.90
2018-10-06T06:10:01.554Z,9.70
2018-10-06T06:12:30.072Z,9.37
2018-10-06T06:14:59.232Z,9.90
2018-10-06T06:17:27.806Z,10.47
2018-10-06T06:19:56.518Z,9.27
2018-10-06T06:22:25.280Z,9.97
2018-10-06T06:24:54.016Z,9.60
2018-10-06T06:27:22.588Z,9.67
2018-10-06T06:29:51.591Z,10.50
2018-10-06T06:32:20.226Z,9.80
2018-10-06T06:34:48.919Z,9.33
2018-10-06T06:37:17.519Z,9.67
2018-10-06T06:39:46.180Z,9.37
2018-10-06T06:42:14.798Z,9.63
2018-10-06T06:44:43.448Z,10.03
2018-10-06T06:47:12.047Z,10.20
2018-10-06T06:49:40.635Z,9.80
2018-10-06T06:52:09.239Z,9.37
2018-10-06T06:54:37.819Z,10.90
2018-10-06T06:57:07.477Z,9.27
2018-10-06T06:59:36.120Z,8.63
2018-10-06T07:02:04.767Z,9.83
2018-10-06T07:04:33.504Z,10.10
2018-10-06T07:07:02.112Z,8.70
2018-10-06T07:09:30.687Z,8.90
2018-10-06T07:11:59.280Z,10.47
2018-10-06T07:14:27.915Z,8.30
2018-10-06T07:16:56.523Z,9.30
2018-10-06T07:19:25.219Z,9.13
2018-10-06T07:21:53.828Z,9.20
2018-10-06T07:24:22.400Z,9.40
2018-10-06T07:26:50.983Z,10.33
2018-10-06T07:29:19.684Z,9.40
2018-10-06T07:31:48.261Z,9.90
2018-10-06T07:34:16.815Z,9.10
2018-10-06T07:36:45.528Z,9.00
2018-10-06T07:39:14.108Z,8.83
2018-10-06T07:41:42.760Z,16.80
2018-10-06T07:44:11.366Z,9.47
2018-10-06T07:46:39.960Z,8.37
2018-10-06T07:49:08.728Z,9.77
2018-10-06T07:51:37.459Z,10.20
2018-10-06T07:54:06.048Z,7.97
2018-10-06T07:56:34.749Z,9.03
2018-10-06T07:59:03.397Z,10.13
2018-10-06T08:01:31.940Z,10.70
2018-10-06T08:04:00.572Z,8.17
2018-10-06T08:06:29.231Z,8.37
2018-10-06T08:08:57.796Z,8.70
2018-10-06T08:11:26.372Z,8.73
2018-10-06T08:13:54.992Z,8.30
2018-10-06T08:16:23.553Z,7.87
2018-10-06T08:18:52.116Z,6.93
2018-10-06T08:21:20.819Z,7.97
2018-10-06T08:23:49.400Z,7.77
2018-10-06T08:26:18.099Z,6.40
2018-10-06T08:28:46.802Z,6.63
2018-10-06T08:31:15.378Z,6.40
2018-10-06T08:33:43.987Z,6.80
2018-10-06T08:36:12.620Z,7.20
2018-10-06T08:38:41.184Z,6.93
2018-10-06T08:41:09.959Z,5.97
2018-10-06T08:43:38.740Z,5.83
2018-10-06T08:46:07.339Z,6.63
2018-10-06T08:48:35.904Z,5.83
2018-10-06T08:51:04.584Z,6.10
2018-10-06T08:53:33.140Z,6.40
2018-10-06T08:56:01.780Z,6.37
2018-10-06T08:58:30.348Z,5.30
2018-10-06T09:00:58.960Z,5.90
2018-10-06T09:03:27.571Z,5.20
2018-10-06T09:05:56.173Z,4.50
2018-10-06T09:08:24.736Z,4.33
2018-10-06T09:10:53.317Z,3.90
2018-10-06T09:13:21.915Z,3.57
2018-10-06T09:15:50.507Z,3.37
2018-10-06T09:18:19.156Z,3.37
2018-10-06T09:20:47.848Z,4.20
2018-10-06T09:23:16.419Z,3.30
2018-10-06T09:25:44.984Z,4.00
2018-10-06T09:28:13.649Z,3.60
2018-10-06T09:30:42.196Z,3.43
2018-10-06T09:33:10.760Z,2.73
2018-10-06T09:35:39.348Z,2.73
2018-10-06T09:38:08.219Z,3.10
2018-10-06T09:40:36.823Z,2.60
2018-10-06T09:43:05.539Z,2.90
2018-10-06T09:45:34.150Z,2.60
2018-10-06T09:48:02.785Z,2.70
2018-10-06T09:50:31.789Z,2.43
2018-10-06T09:53:00.369Z,2.97
2018-10-06T09:55:29.025Z,3.10
2018-10-06T09:57:57.755Z,3.07
2018-10-06T10:00:31.533Z,3.40
2018-10-06T10:03:05.298Z,2.53
2018-10-06T10:05:39.675Z,2.53
2018-10-06T10:08:08.518Z,1.80
2018-10-06T10:10:37.084Z,2.30
2018-10-06T10:13:05.733Z,2.40
2018-10-06T10:15:34.846Z,2.17
2018-10-06T10:18:03.573Z,2.40
2018-10-06T10:20:33.567Z,2.40
2018-10-06T10:23:02.946Z,2.37
2018-10-06T10:25:31.639Z,2.57
2018-10-06T10:28:00.912Z,2.43
2018-10-06T10:30:29.595Z,2.80
2018-10-06T10:32:58.675Z,2.43
2018-10-06T10:35:27.260Z,2.57
2018-10-06T10:37:56.668Z,2.40
2018-10-06T10:40:25.227Z,2.00
2018-10-06T10:42:53.986Z,2.87
2018-10-06T10:45:22.579Z,2.97
2018-10-06T10:47:51.139Z,2.70
2018-10-06T10:50:19.720Z,2.97
2018-10-06T10:52:48.317Z,2.30
2018-10-06T10:55:16.872Z,2.70
2018-10-06T10:57:45.472Z,2.57
2018-10-06T11:00:14.295Z,2.80
2018-10-06T11:02:42.796Z,3.07
2018-10-06T11:05:11.372Z,3.33
2018-10-06T11:07:40.059Z,3.20
2018-10-06T11:10:08.628Z,3.80
2018-10-06T11:12:37.193Z,3.03
2018-10-06T11:15:05.903Z,2.00
2018-10-06T11:17:34.472Z,2.90
2018-10-06T11:20:03.061Z,2.73
2018-10-06T11:22:31.704Z,2.80
2018-10-06T11:25:00.340Z,3.50
2018-10-06T11:27:28.893Z,2.50
2018-10-06T11:29:57.519Z,3.17
2018-10-06T11:32:26.105Z,3.03
2018-10-06T11:34:54.833Z,3.27
2018-10-06T11:37:23.661Z,2.80
2018-10-06T11:39:52.227Z,2.47
2018-10-06T11:42:20.807Z,3.23
2018-10-06T11:44:49.807Z,2.57
2018-10-06T11:47:18.401Z,2.60
2018-10-06T11:49:47.040Z,2.20
2018-10-06T11:52:15.965Z,1.80
2018-10-06T11:54:48.010Z,1.80
2018-10-06T11:57:18.336Z,2.50
2018-10-06T11:59:48.443Z,2.40
2018-10-06T12:02:19.112Z,2.07
2018-10-06T12:04:50.281Z,2.00
2018-10-06T12:07:20.841Z,2.60
2018-10-06T12:09:50.025Z,1.73
2018-10-06T12:12:20.877Z,2.17
2018-10-06T12:14:52.798Z,1.77
2018-10-06T12:17:23.460Z,1.80
2018-10-06T12:19:52.960Z,1.90
2018-10-06T12:22:23.076Z,2.03
2018-10-06T12:24:53.700Z,2.40
2018-10-06T12:27:24.880Z,1.47
2018-10-06T12:29:54.928Z,2.43
2018-10-06T12:32:24.103Z,2.13
2018-10-06T12:34:54.748Z,2.23
2018-10-06T12:37:23.204Z,2.27
2018-10-06T12:39:52.154Z,2.37
2018-10-06T12:42:20.785Z,2.23
2018-10-06T12:44:49.528Z,2.00
2018-10-06T12:47:19.223Z,2.53
2018-10-06T12:49:48.685Z,2.00
2018-10-06T12:52:17.852Z,2.57
2018-10-06T12:54:47.664Z,2.50
2018-10-06T12:57:16.462Z,2.80
2018-10-06T12:59:45.214Z,2.63
2018-10-06T13:02:13.873Z,2.13
2018-10-06T13:04:42.880Z,2.30
2018-10-06T13:07:13.067Z,2.00
2018-10-06T13:09:43.450Z,1.90
2018-10-06T13:12:13.259Z,2.20
2018-10-06T13:14:44.167Z,2.23
2018-10-06T13:17:14.979Z,2.03
2018-10-06T13:19:43.547Z,2.60
2018-10-06T13:22:12.237Z,2.43
2018-10-06T13:24:41.067Z,2.23
2018-10-06T13:27:09.811Z,2.20
2018-10-06T13:29:40.438Z,1.77
2018-10-06T13:32:10.053Z,1.97
2018-10-06T13:34:40.328Z,2.37
2018-10-06T13:37:09.711Z,2.00
2018-10-06T13:39:40.400Z,1.80
2018-10-06T13:42:10.835Z,1.93
2018-10-06T13:44:40.407Z,2.30
2018-10-06T13:47:09.060Z,1.80
2018-10-06T13:49:37.628Z,2.40
2018-10-06T13:52:06.428Z,2.33
2018-10-06T13:54:35.012Z,2.47
2018-10-06T13:57:03.714Z,2.73
2018-10-06T13:59:32.353Z,3.13
2018-10-06T14:02:00.934Z,2.63
2018-10-06T14:04:29.525Z,3.27
2018-10-06T14:06:58.154Z,3.00
2018-10-06T14:09:26.739Z,2.90
2018-10-06T14:11:55.299Z,2.70
2018-10-06T14:14:24.324Z,2.90
2018-10-06T14:16:52.894Z,3.07
2018-10-06T14:19:21.470Z,3.23
2018-10-06T14:21:50.606Z,2.80
2018-10-06T14:24:19.196Z,3.00
2018-10-06T14:26:47.747Z,2.90
2018-10-06T14:29:16.412Z,3.10
2018-10-06T14:31:45.016Z,2.43
2018-10-06T14:34:13.612Z,3.43
2018-10-06T14:36:42.320Z,2.70
2018-10-06T14:39:11.703Z,2.87
2018-10-06T14:41:40.369Z,2.60
2018-10-06T14:44:09.475Z,3.50
2018-10-06T14:46:38.009Z,2.40
2018-10-06T14:49:06.608Z,2.70
2018-10-06T14:51:35.311Z,3.10
2018-10-06T14:54:03.924Z,3.30
2018-10-06T14:56:32.497Z,2.40
2018-10-06T14:59:01.096Z,2.70
2018-10-06T15:01:29.705Z,3.10
2018-10-06T15:03:58.265Z,2.70
2018-10-06T15:06:26.901Z,3.60
2018-10-06T15:08:55.499Z,3.13
2018-10-06T15:11:24.089Z,2.67
2018-10-06T15:13:53.015Z,2.80
2018-10-06T15:16:21.751Z,3.20
2018-10-06T15:18:50.320Z,3.27
2018-10-06T15:21:19.020Z,2.80
2018-10-06T15:23:47.580Z,3.10
2018-10-06T15:26:16.152Z,2.50
2018-10-06T15:28:44.827Z,3.20
2018-10-06T15:31:13.465Z,3.83
2018-10-06T15:33:42.063Z,3.03
2018-10-06T15:36:10.672Z,3.00
2018-10-06T15:38:39.242Z,3.60
2018-10-06T15:41:07.968Z,3.70
2018-10-06T15:43:36.594Z,2.67
2018-10-06T15:46:05.419Z,3.00
2018-10-06T15:48:34.559Z,3.70
2018-10-06T15:51:03.316Z,3.30
2018-10-06T15:53:32.223Z,3.90
2018-10-06T15:56:00.808Z,2.50
2018-10-06T15:58:29.631Z,2.80
2018-10-06T16:00:58.196Z,3.17
2018-10-06T16:03:26.755Z,2.77
2018-10-06T16:05:55.395Z,3.77
2018-10-06T16:08:24.119Z,3.00
2018-10-06T16:10:52.920Z,3.37
2018-10-06T16:13:21.754Z,3.30
2018-10-06T16:15:50.352Z,3.40
2018-10-06T16:18:18.920Z,4.80
2018-10-06T16:20:47.523Z,5.97
2018-10-06T16:23:16.365Z,4.57
2018-10-06T16:25:45.067Z,4.30
2018-10-06T16:28:14.935Z,4.10
2018-10-06T16:30:44.855Z,4.67
2018-10-06T16:33:15.422Z,11.30
2018-10-06T16:35:44.661Z,13.63
2018-10-06T16:38:13.250Z,64.23
2018-10-06T16:40:42.883Z,21.30
2018-10-06T16:43:11.426Z,4.27
2018-10-06T16:45:39.992Z,4.00
2018-10-06T16:48:08.646Z,4.90
2018-10-06T16:50:37.228Z,5.70
2018-10-06T16:53:05.792Z,7.30
2018-10-06T16:55:34.421Z,7.87
2018-10-06T16:58:03.012Z,9.40
2018-10-06T17:00:32.452Z,7.00
2018-10-06T17:03:01.074Z,5.97
2018-10-06T17:05:29.672Z,8.87
2018-10-06T17:07:58.244Z,8.97
2018-10-06T17:10:26.831Z,9.00
2018-10-06T17:12:55.455Z,12.07
2018-10-06T17:15:24.444Z,8.30
2018-10-06T17:17:53.052Z,9.30
2018-10-06T17:20:21.661Z,10.73
2018-10-06T17:22:50.259Z,13.60
2018-10-06T17:25:19.072Z,11.63
2018-10-06T17:27:47.600Z,12.07
2018-10-06T17:30:16.192Z,11.87
2018-10-06T17:32:44.843Z,10.23
2018-10-06T17:35:13.671Z,11.40
2018-10-06T17:37:42.255Z,11.97
2018-10-06T17:40:11.148Z,9.37
2018-10-06T17:42:39.719Z,9.60
2018-10-06T17:45:08.480Z,9.53
2018-10-06T17:47:38.866Z,7.17
2018-10-06T17:50:07.584Z,7.67
2018-10-06T17:52:36.097Z,8.87
2018-10-06T17:55:04.771Z,9.07
2018-10-06T17:57:33.404Z,9.27
2018-10-06T18:00:01.957Z,9.30
2018-10-06T18:02:30.648Z,8.93
2018-10-06T18:05:00.346Z,9.63
2018-10-06T18:07:29.997Z,11.50
2018-10-06T18:09:59.643Z,8.97
2018-10-06T18:12:29.631Z,9.40
2018-10-06T18:15:00.006Z,7.30
2018-10-06T18:17:29.284Z,9.07
2018-10-06T18:19:58.388Z,6.63
2018-10-06T18:22:27.128Z,6.50
2018-10-06T18:24:57.728Z,5.80
2018-10-06T18:27:27.085Z,5.90
2018-10-06T18:29:57.376Z,6.77
2018-10-06T18:32:26.201Z,5.03
2018-10-06T18:34:56.051Z,5.23
2018-10-06T18:37:26.182Z,5.50
2018-10-06T18:39:56.667Z,5.20
2018-10-06T18:42:26.412Z,5.97
2018-10-06T18:44:56.295Z,6.73
2018-10-06T18:47:25.568Z,5.30
2018-10-06T18:49:55.883Z,6.03
2018-10-06T18:52:25.938Z,4.60
2018-10-06T18:54:56.565Z,5.60
2018-10-06T18:57:26.227Z,4.50
2018-10-06T18:59:56.444Z,5.33
2018-10-06T19:02:26.460Z,4.63
2018-10-06T19:04:55.571Z,5.63
2018-10-06T19:07:26.095Z,4.77
2018-10-06T19:09:55.794Z,5.73
2018-10-06T19:12:25.524Z,6.37
2018-10-06T19:14:54.611Z,5.80
2018-10-06T19:17:24.078Z,6.33
2018-10-06T19:19:53.444Z,7.00
2018-10-06T19:22:24.303Z,6.10
2018-10-06T19:24:54.530Z,5.90
2018-10-06T19:27:23.925Z,6.47
2018-10-06T19:29:53.402Z,7.10
2018-10-06T19:32:23.262Z,6.03
2018-10-06T19:34:52.731Z,5.77
2018-10-06T19:37:22.605Z,6.50
2018-10-06T19:39:53.388Z,7.70
2018-10-06T19:42:22.861Z,7.10
2018-10-06T19:44:52.360Z,7.13
2018-10-06T19:47:21.009Z,7.40
2018-10-06T19:49:50.921Z,7.30
2018-10-06T19:52:20.159Z,10.00
2018-10-06T19:54:49.931Z,7.50
2018-10-06T19:57:18.998Z,7.07
2018-10-06T19:59:49.107Z,7.50
2018-10-06T20:02:19.545Z,7.27
2018-10-06T20:04:49.676Z,7.20
2018-10-06T20:07:18.875Z,6.30
2018-10-06T20:09:49.551Z,5.00
2018-10-06T20:12:18.258Z,5.60
2018-10-06T20:14:47.115Z,6.27
2018-10-06T20:17:15.727Z,7.50
2018-10-06T20:19:45.232Z,6.70
2018-10-06T20:22:16.249Z,7.10
2018-10-06T20:24:47.820Z,7.77
2018-10-06T20:27:19.970Z,7.13
2018-10-06T20:29:51.174Z,6.17
2018-10-06T20:32:22.070Z,6.87
2018-10-06T20:34:53.808Z,7.33
2018-10-06T20:37:26.696Z,7.57
2018-10-06T20:39:55.624Z,8.10
2018-10-06T20:42:24.183Z,6.10
2018-10-06T20:44:53.224Z,6.93
2018-10-06T20:47:21.825Z,6.50
2018-10-06T20:49:50.534Z,6.60
2018-10-06T20:52:19.256Z,6.37
2018-10-06T20:54:47.860Z,7.00
2018-10-06T20:57:16.425Z,7.53
2018-10-06T20:59:45.086Z,7.10
2018-10-06T21:02:13.696Z,6.30
2018-10-06T21:04:42.271Z,6.10
2018-10-06T21:07:10.932Z,5.83
2018-10-06T21:09:39.520Z,7.30
2018-10-06T21:12:08.393Z,6.40
2018-10-06T21:14:37.104Z,6.07
2018-10-06T21:17:05.683Z,6.77
2018-10-06T21:19:34.303Z,5.63
2018-10-06T21:22:02.985Z,5.80
2018-10-06T21:24:31.579Z,5.93
2018-10-06T21:27:00.183Z,5.97
2018-10-06T21:29:28.979Z,6.13
2018-10-06T21:31:57.442Z,6.30
2018-10-06T21:34:26.031Z,7.17
2018-10-06T21:36:54.752Z,7.00
2018-10-06T21:39:23.352Z,7.00
2018-10-06T21:41:51.943Z,8.27
2018-10-06T21:44:20.892Z,8.23
2018-10-06T21:46:49.480Z,8.13
2018-10-06T21:49:18.037Z,7.57
2018-10-06T21:51:46.674Z,7.30
2018-10-06T21:54:15.253Z,7.10
2018-10-06T21:56:44.403Z,8.10
2018-10-06T21:59:13.259Z,9.27
2018-10-06T22:01:41.816Z,9.00
2018-10-06T22:04:10.524Z,8.30
2018-10-06T22:06:39.306Z,9.77
2018-10-06T22:09:08.108Z,8.83
2018-10-06T22:11:36.887Z,8.20
2018-10-06T22:14:06.314Z,7.97
2018-10-06T22:16:34.904Z,9.00
2018-10-06T22:19:03.475Z,7.97
2018-10-06T22:21:32.163Z,7.27
2018-10-06T22:24:00.803Z,6.57
2018-10-06T22:26:29.477Z,8.07
2018-10-06T22:28:58.084Z,7.63
2018-10-06T22:31:27.118Z,7.20
2018-10-06T22:33:55.784Z,7.00
2018-10-06T22:36:24.802Z,7.83
2018-10-06T22:38:53.569Z,7.20
2018-10-06T22:41:22.187Z,6.73
2018-10-06T22:43:51.812Z,7.03
2018-10-06T22:46:20.547Z,8.57
2018-10-06T22:48:49.127Z,7.40
2018-10-06T22:51:17.820Z,6.40
2018-10-06T22:53:46.415Z,6.87
2018-10-06T22:56:14.983Z,6.60
2018-10-06T22:58:43.816Z,7.27
2018-10-06T23:01:12.676Z,5.90
2018-10-06T23:03:41.699Z,6.60
2018-10-06T23:06:10.364Z,7.93
2018-10-06T23:08:39.051Z,6.53
2018-10-06T23:11:07.683Z,6.77
2018-10-06T23:13:36.387Z,6.93
2018-10-06T23:16:04.992Z,6.97
2018-10-06T23:18:33.740Z,7.07
2018-10-06T23:21:02.415Z,5.87
2018-10-06T23:23:31.053Z,7.37
2018-10-06T23:25:59.763Z,8.20
2018-10-06T23:28:29.285Z,6.00
2018-10-06T23:30:58.079Z,7.13
2018-10-06T23:33:26.658Z,6.67
2018-10-06T23:35:55.284Z,5.93
2018-10-06T23:38:24.552Z,5.70
2018-10-06T23:40:53.172Z,7.03
2018-10-06T23:43:22.056Z,6.03
2018-10-06T23:45:50.832Z,6.70
2018-10-06T23:48:19.429Z,6.20
2018-10-06T23:50:48.047Z,5.97
2018-10-06T23:53:16.650Z,8.20
2018-10-06T23:55:45.240Z,5.87
2018-10-06T23:58:14.264Z,7.13
